createdAt,value
2023-03-19T00:00:28.758Z,10.46
2023-03-19T00:02:55.625Z,10.30
2023-03-19T00:05:22.230Z,10.33
2023-03-19T00:07:48.660Z,10.30
2023-03-19T00:10:15.270Z,10.37
2023-03-19T00:12:41.954Z,10.34
2023-03-19T00:15:13.981Z,10.29
2023-03-19T00:17:41.768Z,10.30
2023-03-19T00:20:09.845Z,10.15
2023-03-19T00:22:39.749Z,10.10
2023-03-19T00:25:09.789Z,9.94
2023-03-19T00:27:38.595Z,9.85
2023-03-19T00:30:11.625Z,9.95
2023-03-19T00:32:39.512Z,9.96
2023-03-19T00:35:08.847Z,9.99
2023-03-19T00:37:38.409Z,10.02
2023-03-19T00:40:05.548Z,10.00
2023-03-19T00:42:32.527Z,9.89
2023-03-19T00:44:59.122Z,9.92
2023-03-19T00:47:25.968Z,9.91
2023-03-19T00:49:52.400Z,9.89
2023-03-19T00:52:18.923Z,9.83
2023-03-19T00:54:46.106Z,9.98
2023-03-19T00:57:12.548Z,9.94
2023-03-19T00:59:42.097Z,9.89
2023-03-19T01:02:11.319Z,9.98
2023-03-19T01:04:39.286Z,9.98
2023-03-19T01:07:05.784Z,9.97
2023-03-19T01:09:32.774Z,9.97
2023-03-19T01:11:59.244Z,9.90
2023-03-19T01:14:25.678Z,9.98
2023-03-19T01:16:52.094Z,9.95
2023-03-19T01:19:19.972Z,9.96
2023-03-19T01:21:46.717Z,9.99
2023-03-19T01:24:13.815Z,9.99
2023-03-19T01:26:43.806Z,9.99
2023-03-19T01:29:13.320Z,10.05
2023-03-19T01:31:43.076Z,10.01
2023-03-19T01:34:10.767Z,9.97
2023-03-19T01:36:37.277Z,9.96
2023-03-19T01:39:03.912Z,9.91
2023-03-19T01:41:30.754Z,9.85
2023-03-19T01:43:57.257Z,9.82
2023-03-19T01:46:30.981Z,9.81
2023-03-19T01:49:01.141Z,9.87
2023-03-19T01:51:32.141Z,9.86
2023-03-19T01:54:07.554Z,9.82
2023-03-19T01:56:37.628Z,9.83
2023-03-19T01:59:29.712Z,9.87
2023-03-19T02:02:05.340Z,9.83
2023-03-19T02:04:34.125Z,9.81
2023-03-19T02:07:02.830Z,9.80
2023-03-19T02:09:30.531Z,9.71
2023-03-19T02:11:59.266Z,9.48
2023-03-19T02:14:26.096Z,9.43
2023-03-19T02:16:54.447Z,9.46
2023-03-19T02:19:44.247Z,9.42
2023-03-19T02:22:16.267Z,9.41
2023-03-19T02:24:53.446Z,9.43
2023-03-19T02:27:20.863Z,9.40
2023-03-19T02:29:49.326Z,9.25
2023-03-19T02:32:16.352Z,9.19
2023-03-19T02:34:46.876Z,9.23
2023-03-19T02:37:27.877Z,9.25
2023-03-19T02:39:59.469Z,9.26
2023-03-19T02:42:28.840Z,9.16
2023-03-19T02:44:55.520Z,9.23
2023-03-19T02:47:22.023Z,9.14
2023-03-19T02:49:48.480Z,9.11
2023-03-19T02:52:16.710Z,9.21
2023-03-19T02:54:45.192Z,9.15
2023-03-19T02:57:11.621Z,9.16
2023-03-19T02:59:39.085Z,9.09
2023-03-19T03:02:06.783Z,9.06
2023-03-19T03:04:34.907Z,9.04
2023-03-19T03:07:01.793Z,9.11
2023-03-19T03:09:28.288Z,9.15
2023-03-19T03:11:54.857Z,9.12
2023-03-19T03:14:21.325Z,9.18
2023-03-19T03:16:47.909Z,9.19
2023-03-19T03:19:17.886Z,9.10
2023-03-19T03:21:44.320Z,9.20
2023-03-19T03:24:11.055Z,9.19
2023-03-19T03:26:38.985Z,9.19
2023-03-19T03:29:06.663Z,9.15
2023-03-19T03:31:33.576Z,9.21
2023-03-19T03:34:00.641Z,9.13
2023-03-19T03:36:27.852Z,9.19
2023-03-19T03:38:54.786Z,9.14
2023-03-19T03:41:21.663Z,9.22
2023-03-19T03:43:51.471Z,9.31
2023-03-19T03:46:21.075Z,9.34
2023-03-19T03:48:51.481Z,9.47
2023-03-19T03:51:22.142Z,9.45
2023-03-19T03:53:49.252Z,9.49
2023-03-19T03:56:15.736Z,9.59
2023-03-19T03:58:42.298Z,9.64
2023-03-19T04:01:15.326Z,9.61
2023-03-19T04:03:41.910Z,9.54
2023-03-19T04:06:13.969Z,9.57
2023-03-19T04:08:40.371Z,9.52
2023-03-19T04:11:08.299Z,9.51
2023-03-19T04:13:37.146Z,9.61
2023-03-19T04:16:08.257Z,9.69
2023-03-19T04:18:34.905Z,9.67
2023-03-19T04:21:01.953Z,9.65
2023-03-19T04:23:28.805Z,9.56
2023-03-19T04:26:00.386Z,9.46
2023-03-19T04:28:27.372Z,9.40
2023-03-19T04:31:02.743Z,9.35
2023-03-19T04:33:29.920Z,9.39
2023-03-19T04:35:56.688Z,9.38
2023-03-19T04:38:23.376Z,9.47
2023-03-19T04:40:54.223Z,9.52
2023-03-19T04:43:24.534Z,9.48
2023-03-19T04:45:54.596Z,9.56
2023-03-19T04:48:24.286Z,9.47
2023-03-19T04:50:57.041Z,9.45
2023-03-19T04:53:24.701Z,9.41
2023-03-19T04:55:54.594Z,9.38
2023-03-19T04:58:22.849Z,9.42
2023-03-19T05:00:49.301Z,9.39
2023-03-19T05:03:16.538Z,9.44
2023-03-19T05:05:43.207Z,9.48
2023-03-19T05:08:09.738Z,9.47
2023-03-19T05:10:37.543Z,9.48
2023-03-19T05:13:04.617Z,9.45
2023-03-19T05:15:31.486Z,9.42
2023-03-19T05:17:58.388Z,9.45
2023-03-19T05:20:25.320Z,9.57
2023-03-19T05:22:54.732Z,9.60
2023-03-19T05:25:23.606Z,9.59
2023-03-19T05:27:50.089Z,9.50
2023-03-19T05:30:18.422Z,9.43
2023-03-19T05:32:46.935Z,9.42
2023-03-19T05:35:14.369Z,9.45
2023-03-19T05:37:41.578Z,9.39
2023-03-19T05:40:08.858Z,9.21
2023-03-19T05:42:35.461Z,9.06
2023-03-19T05:45:02.276Z,9.00
2023-03-19T05:47:28.728Z,8.86
2023-03-19T05:49:56.416Z,8.80
2023-03-19T05:52:26.443Z,8.81
2023-03-19T05:54:54.050Z,8.76
2023-03-19T05:57:21.247Z,8.77
2023-03-19T05:59:47.775Z,8.65
2023-03-19T06:02:14.641Z,8.66
2023-03-19T06:04:41.180Z,8.69
2023-03-19T06:07:07.813Z,8.75
2023-03-19T06:09:34.274Z,8.86
2023-03-19T06:12:00.862Z,8.81
2023-03-19T06:14:27.275Z,8.80
2023-03-19T06:16:56.838Z,8.85
2023-03-19T06:19:26.065Z,8.93
2023-03-19T06:21:54.117Z,8.97
2023-03-19T06:24:20.672Z,8.88
2023-03-19T06:26:47.172Z,8.96
2023-03-19T06:29:13.670Z,8.95
2023-03-19T06:31:41.652Z,9.09
2023-03-19T06:34:08.471Z,9.12
2023-03-19T06:36:34.963Z,9.24
2023-03-19T06:39:01.637Z,9.23
2023-03-19T06:41:28.072Z,9.31
2023-03-19T06:43:57.581Z,9.50
2023-03-19T06:46:26.588Z,9.60
2023-03-19T06:48:55.177Z,9.75
2023-03-19T06:51:21.945Z,9.79
2023-03-19T06:53:48.444Z,9.92
2023-03-19T06:56:15.697Z,10.00
2023-03-19T06:58:42.162Z,10.24
2023-03-19T07:01:09.153Z,10.35
2023-03-19T07:03:35.644Z,10.64
2023-03-19T07:06:02.127Z,10.84
2023-03-19T07:08:29.898Z,10.92
2023-03-19T07:10:57.683Z,11.15
2023-03-19T07:13:27.447Z,11.08
2023-03-19T07:15:57.069Z,11.08
2023-03-19T07:18:27.168Z,11.11
2023-03-19T07:20:56.787Z,11.11
2023-03-19T07:23:23.483Z,11.05
2023-03-19T07:25:49.993Z,11.20
2023-03-19T07:28:16.506Z,11.20
2023-03-19T07:30:42.992Z,11.13
2023-03-19T07:33:09.443Z,11.03
2023-03-19T07:35:36.622Z,11.12
2023-03-19T07:38:03.304Z,11.32
2023-03-19T07:40:29.930Z,11.49
2023-03-19T07:42:56.428Z,11.81
2023-03-19T07:45:25.491Z,12.14
2023-03-19T07:47:52.595Z,12.20
2023-03-19T07:50:19.429Z,12.22
2023-03-19T07:52:48.011Z,12.27
2023-03-19T07:55:15.641Z,12.42
2023-03-19T07:57:42.199Z,12.67
2023-03-19T08:00:10.598Z,12.78
2023-03-19T08:02:37.153Z,12.90
2023-03-19T08:05:04.824Z,12.93
2023-03-19T08:07:32.151Z,12.94
2023-03-19T08:09:58.752Z,12.96
2023-03-19T08:12:26.128Z,13.03
2023-03-19T08:14:53.998Z,13.08
2023-03-19T08:17:21.384Z,12.87
2023-03-19T08:19:47.906Z,12.58
2023-03-19T08:22:14.418Z,12.66
2023-03-19T08:24:40.906Z,12.50
2023-03-19T08:27:08.120Z,12.58
2023-03-19T08:29:35.181Z,12.71
2023-03-19T08:32:01.796Z,12.66
2023-03-19T08:34:28.240Z,12.83
2023-03-19T08:36:57.818Z,12.99
2023-03-19T08:39:27.327Z,12.91
2023-03-19T08:41:53.898Z,12.71
2023-03-19T08:44:20.357Z,12.59
2023-03-19T08:46:46.843Z,12.38
2023-03-19T08:49:13.277Z,12.46
2023-03-19T08:51:40.506Z,12.61
2023-03-19T08:54:07.061Z,12.57
2023-03-19T08:56:33.584Z,12.66
2023-03-19T08:59:00.232Z,12.54
2023-03-19T09:01:27.109Z,12.43
2023-03-19T09:03:55.713Z,12.30
2023-03-19T09:06:22.210Z,12.35
2023-03-19T09:08:48.918Z,12.47
2023-03-19T09:11:16.924Z,12.59
2023-03-19T09:13:43.934Z,12.84
2023-03-19T09:16:10.524Z,12.98
2023-03-19T09:18:37.060Z,13.29
2023-03-19T09:21:03.892Z,13.75
2023-03-19T09:23:30.408Z,14.41
2023-03-19T09:25:56.950Z,14.86
2023-03-19T09:28:27.180Z,15.37
2023-03-19T09:30:54.876Z,15.57
2023-03-19T09:33:21.723Z,15.80
2023-03-19T09:35:54.016Z,16.06
2023-03-19T09:38:22.593Z,16.12
2023-03-19T09:41:01.864Z,16.01
2023-03-19T09:43:28.279Z,16.15
2023-03-19T09:46:02.219Z,16.56
2023-03-19T09:48:47.033Z,17.08
2023-03-19T09:51:21.901Z,16.82
2023-03-19T09:53:58.294Z,16.13
2023-03-19T09:56:27.981Z,15.74
2023-03-19T09:58:57.796Z,15.31
2023-03-19T10:01:41.461Z,14.79
2023-03-19T10:04:42.552Z,14.53
2023-03-19T10:07:25.925Z,14.80
2023-03-19T10:10:05.069Z,15.83
2023-03-19T10:12:54.761Z,16.56
2023-03-19T10:15:35.564Z,16.78
2023-03-19T10:18:11.337Z,16.62
2023-03-19T10:20:58.053Z,16.42
2023-03-19T10:23:39.934Z,16.24
2023-03-19T10:26:12.202Z,15.71
2023-03-19T10:28:42.451Z,15.45
2023-03-19T10:31:37.846Z,15.57
2023-03-19T10:34:32.021Z,15.69
2023-03-19T10:37:14.338Z,15.55
2023-03-19T10:39:43.667Z,15.24
2023-03-19T10:42:20.004Z,15.94
2023-03-19T10:45:12.754Z,16.70
2023-03-19T10:47:41.182Z,16.73
2023-03-19T10:50:25.297Z,16.06
2023-03-19T10:53:00.698Z,16.17
2023-03-19T10:55:30.956Z,15.83
2023-03-19T10:58:04.547Z,15.69
2023-03-19T11:00:33.562Z,16.29
2023-03-19T11:03:04.048Z,17.09
2023-03-19T11:05:34.015Z,18.03
2023-03-19T11:08:34.581Z,19.43
2023-03-19T11:11:01.764Z,20.38
2023-03-19T11:13:28.398Z,20.40
2023-03-19T11:15:59.214Z,20.64
2023-03-19T11:18:36.980Z,21.03
2023-03-19T11:21:20.634Z,22.59
2023-03-19T11:23:55.455Z,22.74
2023-03-19T11:26:26.232Z,21.54
2023-03-19T11:28:52.854Z,20.43
2023-03-19T11:31:45.016Z,19.28
2023-03-19T11:34:35.953Z,18.60
2023-03-19T11:37:29.728Z,19.48
2023-03-19T11:40:08.533Z,20.54
2023-03-19T11:42:57.119Z,21.63
2023-03-19T11:45:33.850Z,22.06
2023-03-19T11:48:34.649Z,22.11
2023-03-19T11:51:13.357Z,21.68
2023-03-19T11:54:01.451Z,21.38
2023-03-19T11:56:49.215Z,20.26
2023-03-19T11:59:58.484Z,19.20
2023-03-19T12:02:45.355Z,17.63
2023-03-19T12:05:27.937Z,17.07
2023-03-19T12:08:38.051Z,15.89
2023-03-19T12:11:14.366Z,15.08
2023-03-19T12:13:59.070Z,15.16
2023-03-19T12:16:53.062Z,16.10
2023-03-19T12:19:32.016Z,17.56
2023-03-19T12:22:17.345Z,19.13
2023-03-19T12:25:06.090Z,20.92
2023-03-19T12:27:36.669Z,22.11
2023-03-19T12:30:30.143Z,22.91
2023-03-19T12:33:08.921Z,22.39
2023-03-19T12:35:38.519Z,22.26
2023-03-19T12:38:28.755Z,21.02
2023-03-19T12:41:03.766Z,19.24
2023-03-19T12:43:39.432Z,17.16
2023-03-19T12:46:25.787Z,16.44
2023-03-19T12:49:07.967Z,17.69
2023-03-19T12:51:42.353Z,18.39
2023-03-19T12:54:18.200Z,19.19
2023-03-19T12:57:06.258Z,18.52
2023-03-19T12:59:54.723Z,17.79
2023-03-19T13:03:03.333Z,16.21
2023-03-19T13:05:41.733Z,13.26
2023-03-19T13:08:27.613Z,12.80
2023-03-19T13:10:57.201Z,12.43
2023-03-19T13:13:51.356Z,12.39
2023-03-19T13:16:30.946Z,12.73
2023-03-19T13:19:06.691Z,12.87
2023-03-19T13:21:37.698Z,12.67
2023-03-19T13:24:19.425Z,12.56
2023-03-19T13:26:47.559Z,12.79
2023-03-19T13:29:31.658Z,12.88
2023-03-19T13:32:26.580Z,13.03
2023-03-19T13:35:28.092Z,13.56
2023-03-19T13:38:19.858Z,13.88
2023-03-19T13:40:48.215Z,14.05
2023-03-19T13:43:28.152Z,14.33
2023-03-19T13:46:15.948Z,15.06
2023-03-19T13:48:45.524Z,15.68
2023-03-19T13:51:18.021Z,16.64
2023-03-19T13:54:08.248Z,17.20
2023-03-19T13:57:03.336Z,17.41
2023-03-19T13:59:33.555Z,16.72
2023-03-19T14:02:01.906Z,15.79
2023-03-19T14:04:31.175Z,15.90
2023-03-19T14:07:18.158Z,16.48
2023-03-19T14:10:04.679Z,17.26
2023-03-19T14:12:42.954Z,17.34
2023-03-19T14:15:09.854Z,17.71
2023-03-19T14:17:44.993Z,17.92
2023-03-19T14:20:12.653Z,18.22
2023-03-19T14:23:08.941Z,17.87
2023-03-19T14:26:07.000Z,17.34
2023-03-19T14:28:45.393Z,16.31
2023-03-19T14:31:43.241Z,16.21
2023-03-19T14:34:38.891Z,15.88
2023-03-19T14:37:44.292Z,16.36
2023-03-19T14:40:16.144Z,16.87
2023-03-19T14:43:15.393Z,17.30
2023-03-19T14:45:59.637Z,17.92
2023-03-19T14:48:40.667Z,17.83
2023-03-19T14:51:44.766Z,17.86
2023-03-19T14:54:58.589Z,17.92
2023-03-19T14:57:33.028Z,17.87
2023-03-19T15:00:00.280Z,17.09
2023-03-19T15:02:41.161Z,17.25
2023-03-19T15:05:17.527Z,17.33
2023-03-19T15:07:47.602Z,17.58
2023-03-19T15:10:20.296Z,17.73
2023-03-19T15:13:05.373Z,17.91
2023-03-19T15:16:02.455Z,17.56
2023-03-19T15:18:31.896Z,17.30
2023-03-19T15:21:02.537Z,17.78
2023-03-19T15:23:32.920Z,18.06
2023-03-19T15:26:03.148Z,18.07
2023-03-19T15:28:34.508Z,17.59
2023-03-19T15:31:26.770Z,16.79
2023-03-19T15:33:53.478Z,16.54
2023-03-19T15:36:31.318Z,16.73
2023-03-19T15:39:04.068Z,17.03
2023-03-19T15:41:33.118Z,17.21
2023-03-19T15:44:01.493Z,17.32
2023-03-19T15:46:34.553Z,16.89
2023-03-19T15:49:20.859Z,16.53
2023-03-19T15:51:53.288Z,15.95
2023-03-19T15:54:20.960Z,15.37
2023-03-19T15:56:50.423Z,14.80
2023-03-19T15:59:20.595Z,14.78
2023-03-19T16:01:47.447Z,15.11
2023-03-19T16:04:22.072Z,14.57
2023-03-19T16:06:49.973Z,14.59
2023-03-19T16:09:23.059Z,14.28
2023-03-19T16:11:49.653Z,14.08
2023-03-19T16:14:42.321Z,14.06
2023-03-19T16:17:14.455Z,13.74
2023-03-19T16:19:50.000Z,13.54
2023-03-19T16:22:20.465Z,13.48
2023-03-19T16:24:48.909Z,13.23
2023-03-19T16:27:19.350Z,13.15
2023-03-19T16:29:56.737Z,13.01
2023-03-19T16:32:32.110Z,13.01
2023-03-19T16:35:25.400Z,12.92
2023-03-19T16:37:53.909Z,12.86
2023-03-19T16:40:20.765Z,12.79
2023-03-19T16:42:49.507Z,12.76
2023-03-19T16:45:18.916Z,12.71
2023-03-19T16:47:51.075Z,12.74
2023-03-19T16:50:19.915Z,12.84
2023-03-19T16:52:47.654Z,12.81
2023-03-19T16:55:27.292Z,12.73
2023-03-19T16:58:07.529Z,12.74
2023-03-19T17:00:34.413Z,12.61
2023-03-19T17:03:03.628Z,12.53
2023-03-19T17:05:31.863Z,12.26
2023-03-19T17:07:58.754Z,12.14
2023-03-19T17:10:28.430Z,11.96
2023-03-19T17:12:56.317Z,11.84
2023-03-19T17:16:13.322Z,11.97
2023-03-19T17:18:42.925Z,11.97
2023-03-19T17:21:12.768Z,11.98
2023-03-19T17:23:39.429Z,11.90
2023-03-19T17:26:15.381Z,11.84
2023-03-19T17:28:41.879Z,11.68
2023-03-19T17:31:24.138Z,11.87
2023-03-19T17:33:52.354Z,11.78
2023-03-19T17:36:19.616Z,11.88
2023-03-19T17:38:55.328Z,11.67
2023-03-19T17:41:22.002Z,11.64
2023-03-19T17:43:48.630Z,11.50
2023-03-19T17:46:21.587Z,11.46
2023-03-19T17:48:49.850Z,11.42
2023-03-19T17:51:19.354Z,11.33
2023-03-19T17:53:49.104Z,11.34
2023-03-19T17:56:18.377Z,11.28
2023-03-19T17:58:45.096Z,11.21
2023-03-19T18:01:15.376Z,11.06
2023-03-19T18:03:42.049Z,11.07
2023-03-19T18:06:23.557Z,11.07
2023-03-19T18:08:50.838Z,10.89
2023-03-19T18:11:17.659Z,10.91
2023-03-19T18:13:44.166Z,10.71
2023-03-19T18:16:23.349Z,10.55
2023-03-19T18:18:51.468Z,10.64
2023-03-19T18:21:18.634Z,10.72
2023-03-19T18:23:45.514Z,10.62
2023-03-19T18:26:12.034Z,10.68
2023-03-19T18:28:39.033Z,10.76
2023-03-19T18:31:21.789Z,10.69
2023-03-19T18:33:53.831Z,10.72
2023-03-19T18:36:27.785Z,10.45
2023-03-19T18:38:55.429Z,10.74
2023-03-19T18:41:23.554Z,10.66
2023-03-19T18:43:50.538Z,10.55
2023-03-19T18:46:22.020Z,10.69
2023-03-19T18:48:48.999Z,10.66
2023-03-19T18:51:15.489Z,10.50
2023-03-19T18:53:41.954Z,10.44
2023-03-19T18:56:31.770Z,10.48
2023-03-19T18:58:59.210Z,10.46
2023-03-19T19:01:27.713Z,10.33
2023-03-19T19:03:54.765Z,10.47
2023-03-19T19:06:44.250Z,10.51
2023-03-19T19:09:14.105Z,10.57
2023-03-19T19:11:43.896Z,10.55
2023-03-19T19:14:18.397Z,10.51
2023-03-19T19:16:45.370Z,10.51
2023-03-19T19:19:22.612Z,10.46
2023-03-19T19:21:52.077Z,10.52
2023-03-19T19:24:19.092Z,10.51
2023-03-19T19:26:48.200Z,10.55
2023-03-19T19:29:26.524Z,10.62
2023-03-19T19:31:54.718Z,10.62
2023-03-19T19:34:22.764Z,10.61
2023-03-19T19:36:51.075Z,10.48
2023-03-19T19:39:18.429Z,10.53
2023-03-19T19:41:45.214Z,10.63
2023-03-19T19:44:20.182Z,10.60
2023-03-19T19:46:57.679Z,10.38
2023-03-19T19:49:25.407Z,10.28
2023-03-19T19:51:52.209Z,10.58
2023-03-19T19:54:18.691Z,10.65
2023-03-19T19:56:45.407Z,10.60
2023-03-19T19:59:14.906Z,10.51
2023-03-19T20:01:41.457Z,10.74
2023-03-19T20:04:13.842Z,10.73
2023-03-19T20:06:40.390Z,10.65
2023-03-19T20:09:07.788Z,10.73
2023-03-19T20:11:37.510Z,10.74
2023-03-19T20:14:05.013Z,10.76
2023-03-19T20:16:31.586Z,10.61
2023-03-19T20:18:58.157Z,10.27
2023-03-19T20:21:24.672Z,10.13
2023-03-19T20:23:55.214Z,9.94
2023-03-19T20:26:24.706Z,9.76
2023-03-19T20:28:51.719Z,9.64
2023-03-19T20:31:26.012Z,9.56
2023-03-19T20:33:52.546Z,9.30
2023-03-19T20:36:19.613Z,9.21
2023-03-19T20:38:46.130Z,9.12
2023-03-19T20:41:29.227Z,9.20
2023-03-19T20:43:56.529Z,9.16
2023-03-19T20:46:24.594Z,9.12
2023-03-19T20:48:51.230Z,9.00
2023-03-19T20:51:24.809Z,8.83
2023-03-19T20:53:52.705Z,8.91
2023-03-19T20:56:22.219Z,8.79
2023-03-19T20:58:48.848Z,8.83
2023-03-19T21:01:16.829Z,8.81
2023-03-19T21:03:43.366Z,8.91
2023-03-19T21:06:20.228Z,8.92
2023-03-19T21:08:48.844Z,8.87
2023-03-19T21:11:18.342Z,8.96
2023-03-19T21:13:46.314Z,8.96
2023-03-19T21:16:18.386Z,8.94
2023-03-19T21:18:46.447Z,8.96
2023-03-19T21:21:16.315Z,8.98
2023-03-19T21:23:52.929Z,9.10
2023-03-19T21:26:22.451Z,9.18
2023-03-19T21:28:52.079Z,9.18
2023-03-19T21:31:23.590Z,9.13
2023-03-19T21:33:51.565Z,8.96
2023-03-19T21:36:18.751Z,8.99
2023-03-19T21:38:45.627Z,8.99
2023-03-19T21:41:21.812Z,8.91
2023-03-19T21:43:52.689Z,8.96
2023-03-19T21:46:24.552Z,8.95
2023-03-19T21:48:52.351Z,8.94
2023-03-19T21:51:18.822Z,8.88
2023-03-19T21:53:45.732Z,8.77
2023-03-19T21:56:33.575Z,8.81
2023-03-19T21:59:03.502Z,8.79
2023-03-19T22:01:30.033Z,8.62
2023-03-19T22:03:57.916Z,8.68
2023-03-19T22:06:25.768Z,8.62
2023-03-19T22:08:53.972Z,8.57
2023-03-19T22:11:42.519Z,8.65
2023-03-19T22:14:24.629Z,8.52
2023-03-19T22:16:53.850Z,8.56
2023-03-19T22:19:21.144Z,8.47
2023-03-19T22:21:48.100Z,8.39
2023-03-19T22:24:14.579Z,8.42
2023-03-19T22:26:46.756Z,8.28
2023-03-19T22:29:20.008Z,8.32
2023-03-19T22:31:51.178Z,8.35
2023-03-19T22:34:20.080Z,8.45
2023-03-19T22:36:46.551Z,8.44
2023-03-19T22:39:13.785Z,8.58
2023-03-19T22:41:45.793Z,8.68
2023-03-19T22:44:30.280Z,8.62
2023-03-19T22:46:58.760Z,8.83
2023-03-19T22:49:26.475Z,8.90
2023-03-19T22:51:53.052Z,8.70
2023-03-19T22:54:19.604Z,8.66
2023-03-19T22:56:46.139Z,8.46
2023-03-19T22:59:12.572Z,8.35
2023-03-19T23:01:46.874Z,8.48
2023-03-19T23:04:21.775Z,8.48
2023-03-19T23:06:49.315Z,8.41
2023-03-19T23:09:40.272Z,8.22
2023-03-19T23:14:33.989Z,8.33
2023-03-19T23:17:06.723Z,8.20
2023-03-19T23:19:35.486Z,8.23
2023-03-19T23:22:04.930Z,8.09
2023-03-19T23:24:31.554Z,7.94
2023-03-19T23:26:59.751Z,7.87
2023-03-19T23:29:35.981Z,7.89
2023-03-19T23:32:04.387Z,7.89
2023-03-19T23:34:33.500Z,7.87
2023-03-19T23:37:02.519Z,7.87
2023-03-19T23:39:29.292Z,7.99
2023-03-19T23:41:58.242Z,8.03
2023-03-19T23:44:27.173Z,8.02
2023-03-19T23:46:53.768Z,8.03
2023-03-19T23:49:28.814Z,8.11
2023-03-19T23:51:56.164Z,8.20
2023-03-19T23:54:30.524Z,8.29
2023-03-19T23:56:59.868Z,8.29
2023-03-19T23:59:32.354Z,8.24
